Falcon Heights, Texas
Current Conditions -  °F | °C
As of 8:15 PM on Friday 28 Nov 2014 (Local Time) from KAPY Reporting Station
Clear Clear  
Wind Chill: 60°   Ceiling: Unl
Heat Index: 60°   Visibility: 10mi
Dew Point: 49°   Wind: 6mph
Humidity: 68%   Direction: 140°SE
Pressure: 30.11"   Gusts: NA
Location:  26.56°N, 99.12°W
Report Text: KAPY 290215Z AUTO 14005KT 10SM CLR 15/09 A3011 RMK AO2 T01540096
Loading
Personal Weather Stations






























Interactive Weather Map New forecast layout! Learn more

10-Day Weather Forecast

Advertisements
Track Severe Weather on mobile